createdAt,value
2019-02-09T00:01:26.206Z,100174.00
2019-02-09T00:03:57.288Z,100164.00
2019-02-09T00:06:27.810Z,100163.00
2019-02-09T00:08:58.323Z,100156.00
2019-02-09T00:11:28.684Z,100158.00
2019-02-09T00:13:59.247Z,100147.00
2019-02-09T00:16:29.861Z,100146.00
2019-02-09T00:19:00.240Z,100154.00
2019-02-09T00:21:30.589Z,100140.00
2019-02-09T00:24:00.963Z,100125.00
2019-02-09T00:26:31.315Z,100125.00
2019-02-09T00:29:01.763Z,100129.00
2019-02-09T00:31:32.128Z,100128.00
2019-02-09T00:34:02.504Z,100118.00
2019-02-09T00:36:32.841Z,100108.00
2019-02-09T00:39:04.180Z,100110.00
2019-02-09T00:41:35.510Z,100102.00
2019-02-09T00:44:05.887Z,100110.00
2019-02-09T00:46:36.242Z,100123.00
2019-02-09T00:49:06.729Z,100109.00
2019-02-09T00:51:37.083Z,100099.00
2019-02-09T00:54:07.460Z,100105.00
2019-02-09T00:56:37.815Z,100113.00
2019-02-09T00:59:08.332Z,100090.00
2019-02-09T01:01:38.696Z,100091.00
2019-02-09T01:04:09.082Z,100084.00
2019-02-09T01:06:39.430Z,100079.00
2019-02-09T01:09:12.086Z,100095.00
2019-02-09T01:11:42.434Z,100093.00
2019-02-09T01:14:12.809Z,100075.00
2019-02-09T01:16:43.162Z,100067.00
2019-02-09T01:19:13.539Z,100070.00
2019-02-09T01:21:43.925Z,100060.00
2019-02-09T01:24:14.275Z,100058.00
2019-02-09T01:26:44.650Z,100053.00
2019-02-09T01:29:15.013Z,100043.00
2019-02-09T01:31:45.388Z,100027.00
2019-02-09T01:34:15.742Z,100022.00
2019-02-09T01:36:46.121Z,100019.00
2019-02-09T01:39:16.465Z,100017.00
2019-02-09T01:41:46.842Z,100016.00
2019-02-09T01:44:17.193Z,100005.00
2019-02-09T01:46:47.565Z,100013.00
2019-02-09T01:49:17.921Z,100003.00
2019-02-09T01:51:48.303Z,100003.00
2019-02-09T01:54:18.654Z,99991.00
2019-02-09T01:56:49.035Z,99990.00
2019-02-09T01:59:19.380Z,99973.00
2019-02-09T02:01:49.744Z,99968.00
2019-02-09T02:04:20.093Z,99960.00
2019-02-09T02:06:50.463Z,99951.00
2019-02-09T02:09:21.779Z,99936.00
2019-02-09T02:11:52.152Z,99934.00
2019-02-09T02:14:22.504Z,99938.00
2019-02-09T02:16:52.868Z,99933.00
2019-02-09T02:19:23.212Z,99935.00
2019-02-09T02:21:53.742Z,99932.00
2019-02-09T02:24:24.095Z,99923.00
2019-02-09T02:26:54.461Z,99910.00
2019-02-09T02:29:24.811Z,99908.00
2019-02-09T02:31:55.181Z,99900.00
2019-02-09T02:34:25.534Z,99901.00
2019-02-09T02:36:55.895Z,99891.00
2019-02-09T02:39:26.239Z,99893.00
2019-02-09T02:41:56.611Z,99884.00
2019-02-09T02:44:26.961Z,99866.00
2019-02-09T02:46:57.312Z,99868.00
2019-02-09T02:49:27.664Z,99865.00
2019-02-09T02:51:58.026Z,99848.00
2019-02-09T02:54:28.368Z,99852.00
2019-02-09T02:56:59.701Z,99852.00
2019-02-09T02:59:30.311Z,99846.00
2019-02-09T03:02:00.683Z,99838.00
2019-02-09T03:04:54.515Z,99836.00
2019-02-09T03:07:10.268Z,99836.00
2019-02-09T03:09:40.608Z,99840.00
2019-02-09T03:12:10.971Z,99811.00
2019-02-09T03:14:41.362Z,99801.00
2019-02-09T03:17:11.729Z,99803.00
2019-02-09T03:19:42.077Z,99795.00
2019-02-09T03:22:12.444Z,99789.00
2019-02-09T03:24:42.791Z,99788.00
2019-02-09T03:27:13.159Z,99771.00
2019-02-09T03:29:43.514Z,99790.00
2019-02-09T03:32:14.045Z,99763.00
2019-02-09T03:34:44.394Z,99775.00
2019-02-09T03:37:14.773Z,99777.00
2019-02-09T03:39:45.123Z,99772.00
2019-02-09T03:42:15.489Z,99774.00
2019-02-09T03:44:45.837Z,99763.00
2019-02-09T03:47:16.308Z,99754.00
2019-02-09T03:49:46.652Z,99750.00
2019-02-09T03:52:17.041Z,99759.00
2019-02-09T03:54:47.386Z,99759.00
2019-02-09T03:57:17.905Z,99746.00
2019-02-09T03:59:48.246Z,99742.00
2019-02-09T04:02:18.618Z,99748.00
2019-02-09T04:04:49.131Z,99750.00
2019-02-09T04:07:19.521Z,99739.00
2019-02-09T04:09:49.876Z,99732.00
2019-02-09T04:12:20.246Z,99744.00
2019-02-09T04:14:50.590Z,99747.00
2019-02-09T04:17:20.971Z,99743.00
2019-02-09T04:19:51.319Z,99736.00
2019-02-09T04:22:21.689Z,99730.00
2019-02-09T04:24:52.038Z,99739.00
2019-02-09T04:27:23.453Z,99728.00
2019-02-09T04:29:53.802Z,99730.00
2019-02-09T04:32:24.205Z,99729.00
2019-02-09T04:34:54.590Z,99713.00
2019-02-09T04:37:24.983Z,99712.00
2019-02-09T04:39:55.314Z,99708.00
2019-02-09T04:42:25.686Z,99714.00
2019-02-09T04:44:56.031Z,99694.00
2019-02-09T04:47:26.391Z,99701.00
2019-02-09T04:49:56.741Z,99709.00
2019-02-09T04:52:27.106Z,99703.00
2019-02-09T04:54:57.448Z,99688.00
2019-02-09T04:57:27.815Z,99684.00
2019-02-09T04:59:58.165Z,99681.00
2019-02-09T05:02:28.534Z,99677.00
2019-02-09T05:04:58.883Z,99687.00
2019-02-09T05:07:29.247Z,99688.00
2019-02-09T05:09:59.604Z,99688.00
2019-02-09T05:12:29.966Z,99674.00
2019-02-09T05:15:00.311Z,99689.00
2019-02-09T05:17:30.723Z,99691.00
2019-02-09T05:20:01.064Z,99685.00
2019-02-09T05:22:36.120Z,99699.00
2019-02-09T05:25:10.071Z,99692.00
2019-02-09T05:27:40.442Z,99694.00
2019-02-09T05:33:19.206Z,99700.00
2019-02-09T05:35:49.555Z,99694.00
2019-02-09T05:38:19.919Z,99689.00
2019-02-09T05:40:50.265Z,99686.00
2019-02-09T05:43:20.628Z,99681.00
2019-02-09T05:45:50.973Z,99690.00
2019-02-09T05:48:21.335Z,99682.00
2019-02-09T05:50:51.685Z,99688.00
2019-02-09T05:53:22.061Z,99691.00
2019-02-09T05:55:52.408Z,99692.00
2019-02-09T05:58:22.774Z,99694.00
2019-02-09T06:00:53.121Z,99687.00
2019-02-09T06:03:23.489Z,99684.00
2019-02-09T06:05:53.964Z,99690.00
2019-02-09T06:08:24.326Z,99688.00
2019-02-09T06:10:54.712Z,99687.00
2019-02-09T06:13:25.083Z,99685.00
2019-02-09T06:15:55.436Z,99694.00
2019-02-09T06:18:25.801Z,99686.00
2019-02-09T06:20:56.140Z,99691.00
2019-02-09T06:23:26.502Z,99685.00
2019-02-09T06:25:57.491Z,99692.00
2019-02-09T06:28:27.856Z,99692.00
2019-02-09T06:30:58.204Z,99685.00
2019-02-09T06:33:28.563Z,99690.00
2019-02-09T06:35:58.909Z,99688.00
2019-02-09T06:38:29.275Z,99698.00
2019-02-09T06:40:59.615Z,99699.00
2019-02-09T06:43:30.117Z,99696.00
2019-02-09T06:46:00.490Z,99700.00
2019-02-09T06:48:30.879Z,99705.00
2019-02-09T06:51:02.108Z,99714.00
2019-02-09T06:53:32.565Z,99709.00
2019-02-09T06:56:22.249Z,99710.00
2019-02-09T06:58:52.612Z,99706.00
2019-02-09T07:01:22.961Z,99690.00
2019-02-09T07:03:53.324Z,99695.00
2019-02-09T07:06:23.671Z,99696.00
2019-02-09T07:08:54.046Z,99692.00
2019-02-09T07:11:24.494Z,99708.00
2019-02-09T07:13:54.864Z,99707.00
2019-02-09T07:16:25.203Z,99718.00
2019-02-09T07:18:55.573Z,99724.00
2019-02-09T07:21:25.986Z,99731.00
2019-02-09T07:23:56.355Z,99737.00
2019-02-09T07:26:27.660Z,99733.00
2019-02-09T07:28:58.029Z,99730.00
2019-02-09T07:31:28.373Z,99718.00
2019-02-09T07:33:58.748Z,99723.00
2019-02-09T07:36:29.090Z,99725.00
2019-02-09T07:38:59.455Z,99725.00
2019-02-09T07:41:29.795Z,99731.00
2019-02-09T07:44:00.202Z,99729.00
2019-02-09T07:46:30.548Z,99727.00
2019-02-09T07:49:00.909Z,99723.00
2019-02-09T07:51:31.247Z,99723.00
2019-02-09T07:54:01.622Z,99729.00
2019-02-09T07:56:31.971Z,99726.00
2019-02-09T07:59:02.416Z,99725.00
2019-02-09T08:01:32.782Z,99728.00
2019-02-09T08:04:03.124Z,99729.00
2019-02-09T08:06:33.474Z,99734.00
2019-02-09T08:09:05.443Z,99737.00
2019-02-09T08:11:35.788Z,99734.00
2019-02-09T08:14:06.192Z,99737.00
2019-02-09T08:16:36.533Z,99724.00
2019-02-09T08:19:06.891Z,99727.00
2019-02-09T08:21:37.237Z,99735.00
2019-02-09T08:24:07.612Z,99738.00
2019-02-09T08:26:37.952Z,99731.00
2019-02-09T08:29:08.331Z,99733.00
2019-02-09T08:31:38.676Z,99728.00
2019-02-09T08:34:09.041Z,99716.00
2019-02-09T08:36:39.391Z,99716.00
2019-02-09T08:39:10.301Z,99720.00
2019-02-09T08:41:40.644Z,99731.00
2019-02-09T08:44:12.949Z,99725.00
2019-02-09T08:46:43.279Z,99738.00
2019-02-09T08:49:13.741Z,99733.00
2019-02-09T08:51:45.141Z,99739.00
2019-02-09T08:54:15.489Z,99741.00
2019-02-09T08:56:45.859Z,99737.00
2019-02-09T08:59:16.199Z,99734.00
2019-02-09T09:01:46.579Z,99735.00
2019-02-09T09:04:16.931Z,99735.00
2019-02-09T09:06:47.309Z,99738.00
2019-02-09T09:09:17.664Z,99737.00
2019-02-09T09:11:48.049Z,99735.00
2019-02-09T09:14:18.434Z,99736.00
2019-02-09T09:16:49.296Z,99746.00
2019-02-09T09:19:19.653Z,99741.00
2019-02-09T09:21:50.059Z,99738.00
2019-02-09T09:24:20.404Z,99739.00
2019-02-09T09:26:50.788Z,99746.00
2019-02-09T09:29:21.146Z,99766.00
2019-02-09T09:31:51.528Z,99741.00
2019-02-09T09:34:21.961Z,99759.00
2019-02-09T09:36:52.353Z,99768.00
2019-02-09T09:39:22.707Z,99768.00
2019-02-09T09:41:53.094Z,99770.00
2019-02-09T09:44:23.450Z,99764.00
2019-02-09T09:46:53.899Z,99783.00
2019-02-09T09:49:24.248Z,99777.00
2019-02-09T09:51:54.632Z,99785.00
2019-02-09T09:54:24.980Z,99773.00
2019-02-09T09:56:55.365Z,99764.00
2019-02-09T09:59:25.725Z,99763.00
2019-02-09T10:01:56.107Z,99760.00
2019-02-09T10:04:26.468Z,99781.00
2019-02-09T10:06:56.850Z,99784.00
2019-02-09T10:09:27.208Z,99787.00
2019-02-09T10:11:57.606Z,99788.00
2019-02-09T10:14:27.950Z,99793.00
2019-02-09T10:16:58.342Z,99790.00
2019-02-09T10:19:28.692Z,99792.00
2019-02-09T10:21:59.091Z,99791.00
2019-02-09T10:24:29.447Z,99796.00
2019-02-09T10:26:59.829Z,99786.00
2019-02-09T10:29:30.253Z,99786.00
2019-02-09T10:32:00.640Z,99786.00
2019-02-09T10:34:31.171Z,99792.00
2019-02-09T10:37:01.546Z,99809.00
2019-02-09T10:39:31.901Z,99802.00
2019-02-09T10:42:02.320Z,99799.00
2019-02-09T10:44:32.681Z,99804.00
2019-02-09T10:47:03.076Z,99823.00
2019-02-09T10:49:33.430Z,99803.00
2019-02-09T10:52:03.842Z,99804.00
2019-02-09T10:54:34.191Z,99808.00
2019-02-09T10:57:04.574Z,99807.00
2019-02-09T10:59:34.938Z,99825.00
2019-02-09T11:02:06.122Z,99805.00
2019-02-09T11:04:36.474Z,99795.00
2019-02-09T11:07:07.243Z,99813.00
2019-02-09T11:09:37.602Z,99831.00
2019-02-09T11:12:08.089Z,99823.00
2019-02-09T11:14:38.441Z,99821.00
2019-02-09T11:17:12.162Z,99826.00
2019-02-09T11:19:42.519Z,99844.00
2019-02-09T11:22:12.970Z,99824.00
2019-02-09T11:24:43.322Z,99832.00
2019-02-09T11:27:15.328Z,99844.00
2019-02-09T11:29:45.687Z,99847.00
2019-02-09T11:32:16.072Z,99851.00
2019-02-09T11:34:46.493Z,99831.00
2019-02-09T11:37:16.877Z,99839.00
2019-02-09T11:39:47.237Z,99833.00
2019-02-09T11:42:30.429Z,99841.00
2019-02-09T11:45:00.834Z,99847.00
2019-02-09T11:47:31.210Z,99847.00
2019-02-09T11:50:01.668Z,99837.00
2019-02-09T11:52:32.061Z,99835.00
2019-02-09T11:55:02.414Z,99839.00
2019-02-09T11:57:32.803Z,99833.00
2019-02-09T12:00:03.164Z,99843.00
2019-02-09T12:02:33.550Z,99831.00
2019-02-09T12:05:05.899Z,99831.00
2019-02-09T12:07:36.301Z,99837.00
2019-02-09T12:10:11.265Z,99840.00
2019-02-09T12:12:41.649Z,99834.00
2019-02-09T12:15:33.891Z,99841.00
2019-02-09T12:18:06.118Z,99869.00
2019-02-09T12:20:36.475Z,99863.00
2019-02-09T12:23:08.012Z,99866.00
2019-02-09T12:25:39.889Z,99865.00
2019-02-09T12:28:14.048Z,99861.00
2019-02-09T12:30:44.844Z,99862.00
2019-02-09T12:33:22.753Z,99854.00
2019-02-09T12:35:47.333Z,99852.00
2019-02-09T12:38:17.725Z,99852.00
2019-02-09T12:40:48.146Z,99877.00
2019-02-09T12:43:18.530Z,99869.00
2019-02-09T12:45:48.982Z,99884.00
2019-02-09T12:48:19.367Z,99881.00
2019-02-09T12:50:49.733Z,99873.00
2019-02-09T12:53:20.113Z,99873.00
2019-02-09T12:55:50.463Z,99873.00
2019-02-09T12:58:20.842Z,99874.00
2019-02-09T13:00:51.196Z,99886.00
2019-02-09T13:03:30.864Z,99883.00
2019-02-09T13:05:57.348Z,99876.00
2019-02-09T13:08:27.736Z,99890.00
2019-02-09T13:10:58.124Z,99873.00
2019-02-09T13:13:28.520Z,99901.00
2019-02-09T13:15:58.875Z,99882.00
2019-02-09T13:18:29.309Z,99881.00
2019-02-09T13:21:00.046Z,99887.00
2019-02-09T13:23:30.426Z,99894.00
2019-02-09T13:26:00.810Z,99884.00
2019-02-09T13:28:31.203Z,99888.00
2019-02-09T13:31:01.606Z,99897.00
2019-02-09T13:33:38.727Z,99895.00
2019-02-09T13:36:04.041Z,99887.00
2019-02-09T13:38:34.406Z,99888.00
2019-02-09T13:41:04.855Z,99877.00
2019-02-09T13:43:35.212Z,99878.00
2019-02-09T13:46:06.144Z,99874.00
2019-02-09T13:48:36.482Z,99857.00
2019-02-09T13:51:06.841Z,99860.00
2019-02-09T13:53:38.863Z,99866.00
2019-02-09T13:56:09.243Z,99855.00
2019-02-09T13:58:39.592Z,99876.00
2019-02-09T14:01:09.984Z,99859.00
2019-02-09T14:03:46.638Z,99851.00
2019-02-09T14:06:12.417Z,99872.00
2019-02-09T14:08:42.776Z,99874.00
2019-02-09T14:11:13.173Z,99860.00
2019-02-09T14:13:45.919Z,99877.00
2019-02-09T14:16:16.385Z,99875.00
2019-02-09T14:18:52.881Z,99873.00
2019-02-09T14:21:23.266Z,99870.00
2019-02-09T14:23:53.683Z,99879.00
2019-02-09T14:26:24.048Z,99887.00
2019-02-09T14:28:54.485Z,99879.00
2019-02-09T14:31:24.883Z,99880.00
2019-02-09T14:33:55.518Z,99893.00
2019-02-09T14:36:25.939Z,99887.00
2019-02-09T14:38:56.491Z,99893.00
2019-02-09T14:41:26.871Z,99901.00
2019-02-09T14:43:57.936Z,99896.00
2019-02-09T14:46:28.326Z,99924.00
2019-02-09T14:48:58.743Z,99909.00
2019-02-09T14:51:29.110Z,99914.00
2019-02-09T14:54:00.474Z,99906.00
2019-02-09T14:56:30.837Z,99916.00
2019-02-09T14:59:01.246Z,99914.00
2019-02-09T15:01:31.622Z,99912.00
2019-02-09T15:04:03.051Z,99920.00
2019-02-09T15:06:33.501Z,99918.00
2019-02-09T15:09:05.390Z,99919.00
2019-02-09T15:11:35.769Z,99905.00
2019-02-09T15:14:06.511Z,99918.00
2019-02-09T15:16:37.613Z,99927.00
2019-02-09T15:19:07.970Z,99918.00
2019-02-09T15:21:38.418Z,99910.00
2019-02-09T15:24:08.774Z,99912.00
2019-02-09T15:26:39.159Z,99912.00
2019-02-09T15:29:09.518Z,99916.00
2019-02-09T15:31:39.903Z,99912.00
2019-02-09T15:34:10.635Z,99915.00
2019-02-09T15:36:41.091Z,99914.00
2019-02-09T15:39:11.489Z,99919.00
2019-02-09T15:41:41.883Z,99923.00
2019-02-09T15:44:15.310Z,99915.00
2019-02-09T15:46:45.671Z,99918.00
2019-02-09T15:49:16.028Z,99935.00
2019-02-09T15:51:46.409Z,99920.00
2019-02-09T15:54:16.802Z,99933.00
2019-02-09T15:56:47.262Z,99935.00
2019-02-09T15:59:17.614Z,99924.00
2019-02-09T16:01:48.016Z,99934.00
2019-02-09T16:04:18.377Z,99945.00
2019-02-09T16:06:48.743Z,99954.00
2019-02-09T16:09:19.089Z,99951.00
2019-02-09T16:11:49.468Z,99959.00
2019-02-09T16:14:19.817Z,99957.00
2019-02-09T16:16:50.193Z,99974.00
2019-02-09T16:19:20.543Z,99968.00
2019-02-09T16:21:50.926Z,99970.00
2019-02-09T16:24:21.316Z,99963.00
2019-02-09T16:26:52.672Z,99964.00
2019-02-09T16:29:42.367Z,99955.00
2019-02-09T16:32:12.753Z,99957.00
2019-02-09T16:34:43.107Z,99959.00
2019-02-09T16:37:13.484Z,99950.00
2019-02-09T16:39:44.962Z,99954.00
2019-02-09T16:42:15.336Z,99963.00
2019-02-09T16:44:45.678Z,99956.00
2019-02-09T16:47:16.055Z,99950.00
2019-02-09T16:49:46.403Z,99961.00
2019-02-09T16:52:16.786Z,99957.00
2019-02-09T16:54:47.138Z,99948.00
2019-02-09T16:57:20.516Z,99955.00
2019-02-09T16:59:50.832Z,99951.00
2019-02-09T17:02:21.217Z,99968.00
2019-02-09T17:04:51.571Z,99959.00
2019-02-09T17:07:21.945Z,99963.00
2019-02-09T17:09:52.327Z,99962.00
2019-02-09T17:12:22.870Z,99963.00
2019-02-09T17:14:53.227Z,99952.00
2019-02-09T17:17:23.611Z,99954.00
2019-02-09T17:19:53.964Z,99959.00
2019-02-09T17:22:24.338Z,99951.00
2019-02-09T17:24:54.791Z,99957.00
2019-02-09T17:27:25.222Z,99964.00
2019-02-09T17:29:55.571Z,99961.00
2019-02-09T17:32:25.949Z,99973.00
2019-02-09T17:34:56.290Z,99960.00
2019-02-09T17:37:26.727Z,99988.00
2019-02-09T17:39:57.077Z,100017.00
2019-02-09T17:42:27.458Z,100062.00
2019-02-09T17:44:57.810Z,100050.00
2019-02-09T17:47:28.190Z,100092.00
2019-02-09T17:49:58.538Z,100092.00
2019-02-09T17:52:28.920Z,100091.00
2019-02-09T17:54:59.283Z,100082.00
2019-02-09T17:57:29.661Z,100074.00
2019-02-09T18:00:00.026Z,100068.00
2019-02-09T18:02:30.402Z,100064.00
2019-02-09T18:05:00.782Z,100087.00
2019-02-09T18:07:31.169Z,100089.00
2019-02-09T18:10:01.593Z,100092.00
2019-02-09T18:12:32.015Z,100086.00
2019-02-09T18:15:02.399Z,100092.00
2019-02-09T18:17:32.777Z,100088.00
2019-02-09T18:20:04.669Z,100089.00
2019-02-09T18:22:35.872Z,100076.00
2019-02-09T18:25:27.153Z,100079.00
2019-02-09T18:27:59.140Z,100068.00
2019-02-09T18:30:32.118Z,100070.00
2019-02-09T18:33:03.671Z,100070.00
2019-02-09T18:35:34.598Z,100069.00
2019-02-09T18:38:04.988Z,100068.00
2019-02-09T18:40:35.337Z,100060.00
2019-02-09T18:43:06.282Z,100058.00
2019-02-09T18:45:57.879Z,100068.00
2019-02-09T18:48:28.757Z,100060.00
2019-02-09T18:50:59.608Z,100066.00
2019-02-09T18:53:32.258Z,100073.00
2019-02-09T18:56:02.594Z,100075.00
2019-02-09T18:58:34.657Z,100070.00
2019-02-09T19:01:05.536Z,100060.00
2019-02-09T19:03:36.008Z,100066.00
2019-02-09T19:06:06.526Z,100073.00
2019-02-09T19:08:37.021Z,100068.00
2019-02-09T19:11:07.368Z,100074.00
2019-02-09T19:13:37.886Z,100078.00
2019-02-09T19:16:08.739Z,100075.00
2019-02-09T19:18:39.185Z,100078.00
2019-02-09T19:21:11.034Z,100074.00
2019-02-09T19:23:41.485Z,100067.00
2019-02-09T19:26:11.839Z,100074.00
2019-02-09T19:28:45.234Z,100081.00
2019-02-09T19:31:15.586Z,100080.00
2019-02-09T19:33:46.030Z,100087.00
2019-02-09T19:36:16.446Z,100086.00
2019-02-09T19:38:48.416Z,100102.00
2019-02-09T19:41:18.777Z,100092.00
2019-02-09T19:43:49.259Z,100086.00
2019-02-09T19:46:19.602Z,100097.00
2019-02-09T19:48:50.038Z,100100.00
2019-02-09T19:51:20.442Z,100105.00
2019-02-09T19:53:50.898Z,100116.00
2019-02-09T19:56:21.245Z,100115.00
2019-02-09T19:58:51.659Z,100116.00
2019-02-09T20:01:22.040Z,100114.00
2019-02-09T20:03:52.442Z,100125.00
2019-02-09T20:06:22.788Z,100124.00
2019-02-09T20:08:53.216Z,100124.00
2019-02-09T20:11:23.738Z,100125.00
2019-02-09T20:13:54.126Z,100129.00
2019-02-09T20:16:24.489Z,100126.00
2019-02-09T20:18:54.912Z,100119.00
2019-02-09T20:21:25.346Z,100137.00
2019-02-09T20:23:55.724Z,100143.00
2019-02-09T20:26:26.073Z,100135.00
2019-02-09T20:28:57.286Z,100134.00
2019-02-09T20:31:27.777Z,100135.00
2019-02-09T20:33:58.152Z,100139.00
2019-02-09T20:36:28.512Z,100142.00
2019-02-09T20:39:04.478Z,100151.00
2019-02-09T20:41:30.955Z,100144.00
2019-02-09T20:44:01.326Z,100139.00
2019-02-09T20:46:31.764Z,100152.00
2019-02-09T20:49:02.161Z,100161.00
2019-02-09T20:51:32.508Z,100161.00
2019-02-09T20:54:02.890Z,100163.00
2019-02-09T20:56:33.244Z,100164.00
2019-02-09T20:59:04.227Z,100177.00
2019-02-09T21:01:34.580Z,100172.00
2019-02-09T21:04:04.968Z,100177.00
2019-02-09T21:06:35.308Z,100178.00
2019-02-09T21:09:08.504Z,100171.00
2019-02-09T21:11:38.880Z,100185.00
2019-02-09T21:14:09.230Z,100183.00
2019-02-09T21:16:40.547Z,100176.00
2019-02-09T21:19:10.930Z,100178.00
2019-02-09T21:21:41.289Z,100179.00
2019-02-09T21:24:11.663Z,100174.00
2019-02-09T21:26:42.014Z,100179.00
2019-02-09T21:29:12.399Z,100188.00
2019-02-09T21:31:42.752Z,100184.00
2019-02-09T21:34:13.126Z,100177.00
2019-02-09T21:36:43.472Z,100177.00
2019-02-09T21:39:13.862Z,100184.00
2019-02-09T21:41:44.472Z,100176.00
2019-02-09T21:44:14.854Z,100185.00
2019-02-09T21:46:45.214Z,100193.00
2019-02-09T21:49:15.593Z,100194.00
2019-02-09T21:51:45.940Z,100195.00
2019-02-09T21:54:16.317Z,100197.00
2019-02-09T21:56:46.669Z,100200.00
2019-02-09T21:59:17.054Z,100193.00
2019-02-09T22:01:47.404Z,100203.00
2019-02-09T22:04:17.787Z,100191.00
2019-02-09T22:06:48.724Z,100176.00
2019-02-09T22:09:39.081Z,100187.00
2019-02-09T22:12:09.659Z,100201.00
2019-02-09T22:14:40.277Z,100197.00
2019-02-09T22:17:10.795Z,100197.00
2019-02-09T22:19:41.141Z,100199.00
2019-02-09T22:22:11.524Z,100206.00
2019-02-09T22:24:41.899Z,100197.00
2019-02-09T22:27:12.258Z,100203.00
2019-02-09T22:29:42.627Z,100207.00
2019-02-09T22:32:12.985Z,100197.00
2019-02-09T22:34:43.333Z,100205.00
2019-02-09T22:37:13.740Z,100207.00
2019-02-09T22:39:44.112Z,100212.00
2019-02-09T22:42:14.470Z,100217.00
2019-02-09T22:44:44.828Z,100206.00
2019-02-09T22:47:15.202Z,100212.00
2019-02-09T22:49:45.555Z,100211.00
2019-02-09T22:52:15.937Z,100207.00
2019-02-09T22:54:46.281Z,100214.00
2019-02-09T22:57:16.668Z,100212.00
2019-02-09T22:59:47.041Z,100211.00
2019-02-09T23:02:18.172Z,100211.00
2019-02-09T23:04:51.876Z,100212.00
2019-02-09T23:07:24.261Z,100213.00
2019-02-09T23:09:54.621Z,100210.00
2019-02-09T23:12:27.767Z,100219.00
2019-02-09T23:14:58.794Z,100225.00
2019-02-09T23:17:29.347Z,100232.00
2019-02-09T23:19:59.709Z,100232.00
2019-02-09T23:22:30.137Z,100223.00
2019-02-09T23:25:00.507Z,100226.00
2019-02-09T23:27:30.856Z,100229.00
2019-02-09T23:30:01.235Z,100234.00
2019-02-09T23:32:31.593Z,100230.00
2019-02-09T23:35:01.970Z,100240.00
2019-02-09T23:37:32.329Z,100237.00
2019-02-09T23:40:02.700Z,100242.00
2019-02-09T23:42:33.053Z,100250.00
2019-02-09T23:45:05.450Z,100253.00
2019-02-09T23:47:35.820Z,100246.00
2019-02-09T23:50:06.984Z,100248.00
2019-02-09T23:52:37.345Z,100254.00
2019-02-09T23:55:08.859Z,100245.00
2019-02-09T23:57:39.207Z,100245.00
